Terminal Aerodrome Forecast
Issued by NWS

Home | Current Version | Previous Version | Graphics & Text | Print | Product List | Glossary On
Versions: 1 2 3 4 5 6 7 8 9 10 11 12 13 14 15 16 17 18 19
592
FTUS43 KMPX 171505 AAA
TAFAXN
TAF AMD
KAXN 171505Z 1715/1812 29010G18KT P6SM BKN022
     FM172100 29012G20KT P6SM SCT022 SCT200
     FM180200 18004KT P6SM SCT150
     FM180800 15008KT P6SM BKN110=

USA.gov is the U.S. government's official web portal to all federal, state and local government web resources and services.